createdAt,value
2023-04-30T00:01:40.951Z,100.00
2023-04-30T00:04:07.704Z,100.00
2023-04-30T00:06:34.239Z,100.00
2023-04-30T00:09:00.761Z,100.00
2023-04-30T00:11:29.706Z,100.00
2023-04-30T00:13:57.161Z,100.00
2023-04-30T00:16:23.825Z,100.00
2023-04-30T00:18:50.539Z,100.00
2023-04-30T00:21:17.067Z,100.00
2023-04-30T00:23:45.812Z,100.00
2023-04-30T00:26:12.511Z,100.00
2023-04-30T00:28:38.953Z,100.00
2023-04-30T00:31:09.148Z,100.00
2023-04-30T00:33:42.259Z,100.00
2023-04-30T00:36:08.809Z,100.00
2023-04-30T00:38:35.301Z,100.00
2023-04-30T00:41:04.257Z,100.00
2023-04-30T00:43:31.664Z,100.00
2023-04-30T00:45:58.892Z,100.00
2023-04-30T00:48:27.205Z,100.00
2023-04-30T00:50:53.716Z,100.00
2023-04-30T00:53:20.445Z,100.00
2023-04-30T00:55:50.269Z,100.00
2023-04-30T00:58:16.876Z,100.00
2023-04-30T01:00:47.208Z,100.00
2023-04-30T01:03:16.490Z,100.00
2023-04-30T01:05:43.022Z,100.00
2023-04-30T01:08:10.804Z,100.00
2023-04-30T01:11:01.326Z,100.00
2023-04-30T01:13:39.426Z,100.00
2023-04-30T01:16:10.672Z,100.00
2023-04-30T01:18:43.844Z,100.00
2023-04-30T01:21:12.738Z,100.00
2023-04-30T01:24:06.582Z,100.00
2023-04-30T01:27:08.633Z,100.00
2023-04-30T01:29:37.003Z,100.00
2023-04-30T01:32:03.878Z,100.00
2023-04-30T01:34:32.230Z,100.00
2023-04-30T01:37:28.658Z,100.00
2023-04-30T01:40:24.367Z,100.00
2023-04-30T01:43:08.776Z,100.00
2023-04-30T01:45:59.053Z,100.00
2023-04-30T01:48:46.880Z,100.00
2023-04-30T01:51:17.775Z,100.00
2023-04-30T01:53:46.428Z,100.00
2023-04-30T01:56:23.514Z,100.00
2023-04-30T01:58:50.789Z,100.00
2023-04-30T02:01:33.931Z,100.00
2023-04-30T02:04:00.745Z,100.00
2023-04-30T02:06:28.802Z,100.00
2023-04-30T02:08:56.987Z,100.00
2023-04-30T02:11:24.714Z,100.00
2023-04-30T02:13:51.316Z,100.00
2023-04-30T02:16:17.946Z,100.00
2023-04-30T02:18:45.638Z,100.00
2023-04-30T02:21:12.356Z,100.00
2023-04-30T02:23:40.577Z,100.00
2023-04-30T02:26:07.255Z,100.00
2023-04-30T02:28:33.799Z,100.00
2023-04-30T02:31:07.317Z,100.00
2023-04-30T02:33:34.124Z,100.00
2023-04-30T02:36:00.990Z,100.00
2023-04-30T02:38:29.213Z,100.00
2023-04-30T02:40:56.036Z,100.00
2023-04-30T02:43:22.625Z,100.00
2023-04-30T02:45:55.926Z,100.00
2023-04-30T02:48:22.848Z,100.00
2023-04-30T02:50:49.342Z,100.00
2023-04-30T02:53:17.587Z,100.00
2023-04-30T02:55:44.321Z,100.00
2023-04-30T02:58:10.943Z,100.00
2023-04-30T03:00:39.224Z,100.00
2023-04-30T03:03:05.862Z,100.00
2023-04-30T03:05:32.486Z,100.00
2023-04-30T03:08:06.703Z,100.00
2023-04-30T03:10:33.197Z,100.00
2023-04-30T03:12:59.659Z,100.00
2023-04-30T03:15:26.207Z,100.00
2023-04-30T03:17:52.756Z,100.00
2023-04-30T03:20:19.481Z,100.00
2023-04-30T03:22:46.224Z,100.00
2023-04-30T03:25:12.726Z,100.00
2023-04-30T03:27:39.237Z,100.00
2023-04-30T03:30:09.458Z,100.00
2023-04-30T03:32:36.280Z,100.00
2023-04-30T03:35:02.755Z,100.00
2023-04-30T03:37:29.449Z,100.00
2023-04-30T03:39:56.044Z,100.00
2023-04-30T03:42:22.856Z,100.00
2023-04-30T03:44:57.989Z,100.00
2023-04-30T03:47:25.628Z,100.00
2023-04-30T03:49:55.436Z,100.00
2023-04-30T03:52:29.722Z,100.00
2023-04-30T03:54:58.595Z,100.00
2023-04-30T03:57:25.068Z,100.00
2023-04-30T03:59:52.055Z,100.00
2023-04-30T04:02:18.810Z,100.00
2023-04-30T04:04:49.313Z,100.00
2023-04-30T04:07:17.801Z,100.00
2023-04-30T04:09:44.325Z,100.00
2023-04-30T04:12:11.041Z,100.00
2023-04-30T04:14:43.469Z,100.00
2023-04-30T04:17:09.977Z,100.00
2023-04-30T04:19:36.603Z,100.00
2023-04-30T04:22:05.346Z,100.00
2023-04-30T04:24:33.827Z,100.00
2023-04-30T04:27:02.631Z,100.00
2023-04-30T04:29:30.002Z,100.00
2023-04-30T04:31:56.547Z,100.00
2023-04-30T04:34:23.109Z,100.00
2023-04-30T04:36:54.088Z,100.00
2023-04-30T04:39:20.578Z,100.00
2023-04-30T04:41:47.076Z,100.00
2023-04-30T04:44:15.301Z,100.00
2023-04-30T04:46:45.886Z,100.00
2023-04-30T04:49:13.201Z,100.00
2023-04-30T04:51:47.483Z,100.00
2023-04-30T04:54:17.927Z,100.00
2023-04-30T04:56:46.076Z,100.00
2023-04-30T04:59:15.352Z,100.00
2023-04-30T05:01:41.850Z,100.00
2023-04-30T05:04:09.804Z,100.00
2023-04-30T05:06:38.211Z,100.00
2023-04-30T05:09:08.935Z,100.00
2023-04-30T05:11:35.979Z,100.00
2023-04-30T05:14:04.250Z,100.00
2023-04-30T05:16:30.780Z,100.00
2023-04-30T05:18:57.550Z,100.00
2023-04-30T05:21:26.184Z,100.00
2023-04-30T05:23:52.715Z,100.00
2023-04-30T05:26:19.214Z,100.00
2023-04-30T05:28:45.778Z,100.00
2023-04-30T05:31:12.573Z,100.00
2023-04-30T05:33:40.799Z,99.64
2023-04-30T05:36:07.590Z,96.95
2023-04-30T05:38:34.108Z,91.88
2023-04-30T05:41:00.862Z,89.91
2023-04-30T05:43:27.573Z,91.59
2023-04-30T05:45:54.186Z,91.57
2023-04-30T05:48:20.905Z,92.47
2023-04-30T05:50:49.129Z,92.46
2023-04-30T05:53:15.733Z,92.85
2023-04-30T05:55:42.491Z,94.55
2023-04-30T05:58:10.662Z,94.99
2023-04-30T06:00:37.532Z,96.93
2023-04-30T06:03:04.246Z,97.81
2023-04-30T06:05:30.812Z,99.62
2023-04-30T06:07:57.569Z,100.00
2023-04-30T06:10:24.402Z,100.00
2023-04-30T06:12:53.282Z,100.00
2023-04-30T06:15:19.867Z,100.00
2023-04-30T06:17:46.426Z,100.00
2023-04-30T06:20:14.572Z,100.00
2023-04-30T06:22:41.369Z,100.00
2023-04-30T06:27:59.418Z,100.00
2023-04-30T06:30:26.111Z,98.95
2023-04-30T06:32:52.948Z,96.59
2023-04-30T06:35:19.636Z,96.17
2023-04-30T06:37:47.045Z,95.52
2023-04-30T06:40:13.585Z,93.69
2023-04-30T06:42:40.801Z,92.92
2023-04-30T06:45:08.060Z,90.49
2023-04-30T06:47:34.901Z,88.22
2023-04-30T06:50:08.228Z,87.97
2023-04-30T06:52:34.949Z,87.66
2023-04-30T06:55:02.293Z,86.79
2023-04-30T06:57:28.848Z,86.57
2023-04-30T06:59:55.834Z,84.21
2023-04-30T07:05:19.817Z,80.76
2023-04-30T07:07:46.801Z,76.95
2023-04-30T07:10:13.516Z,81.83
2023-04-30T07:12:41.747Z,78.70
2023-04-30T07:15:08.775Z,76.38
2023-04-30T07:17:35.613Z,79.14
2023-04-30T07:20:02.408Z,74.55
2023-04-30T07:22:28.880Z,74.63
2023-04-30T07:24:55.626Z,75.10
2023-04-30T07:27:27.986Z,73.32
2023-04-30T07:29:55.848Z,74.07
2023-04-30T07:32:23.011Z,74.53
2023-04-30T07:34:49.623Z,76.09
2023-04-30T07:37:16.123Z,73.10
2023-04-30T07:39:42.705Z,76.04
2023-04-30T07:42:09.334Z,74.56
2023-04-30T07:44:38.298Z,75.11
2023-04-30T07:47:05.287Z,74.61
2023-04-30T07:49:32.185Z,76.73
2023-04-30T07:51:59.549Z,76.53
2023-04-30T07:54:26.407Z,76.41
2023-04-30T07:56:57.869Z,77.39
2023-04-30T07:59:24.596Z,76.27
2023-04-30T08:01:51.795Z,77.18
2023-04-30T08:04:18.480Z,78.45
2023-04-30T08:06:48.443Z,77.50
2023-04-30T08:09:15.748Z,74.25
2023-04-30T08:11:44.233Z,75.75
2023-04-30T08:14:10.816Z,76.56
2023-04-30T08:16:37.409Z,78.25
2023-04-30T08:19:10.711Z,75.89
2023-04-30T08:21:37.315Z,75.63
2023-04-30T08:24:04.028Z,75.51
2023-04-30T08:26:31.004Z,73.99
2023-04-30T08:28:57.543Z,76.33
2023-04-30T08:31:24.376Z,74.16
2023-04-30T08:33:52.701Z,73.12
2023-04-30T08:36:19.728Z,74.21
2023-04-30T08:38:46.207Z,74.66
2023-04-30T08:41:14.515Z,71.97
2023-04-30T08:43:47.116Z,73.36
2023-04-30T08:46:15.361Z,70.25
2023-04-30T08:48:42.020Z,70.34
2023-04-30T08:53:59.325Z,69.52
2023-04-30T08:56:26.209Z,68.28
2023-04-30T08:58:52.856Z,72.12
2023-04-30T09:01:22.741Z,73.13
2023-04-30T09:03:49.787Z,72.04
2023-04-30T09:06:17.637Z,73.98
2023-04-30T09:08:51.783Z,71.99
2023-04-30T09:11:28.813Z,72.02
2023-04-30T09:13:57.418Z,72.33
2023-04-30T09:16:25.411Z,71.41
2023-04-30T09:18:52.710Z,74.09
2023-04-30T09:21:38.661Z,72.11
2023-04-30T09:24:06.153Z,72.75
2023-04-30T09:26:35.241Z,73.85
2023-04-30T09:29:12.875Z,73.81
2023-04-30T09:31:42.861Z,73.09
2023-04-30T09:34:09.506Z,72.57
2023-04-30T09:36:38.690Z,72.88
2023-04-30T09:39:14.844Z,71.72
2023-04-30T09:41:45.329Z,72.83
2023-04-30T09:44:36.774Z,70.88
2023-04-30T09:47:03.693Z,69.82
2023-04-30T09:49:30.612Z,69.79
2023-04-30T09:52:00.979Z,67.35
2023-04-30T09:54:31.792Z,67.85
2023-04-30T09:57:01.761Z,67.58
2023-04-30T09:59:39.690Z,66.30
2023-04-30T10:02:08.528Z,63.39
2023-04-30T10:04:44.203Z,63.44
2023-04-30T10:07:15.416Z,63.87
2023-04-30T10:09:57.810Z,64.53
2023-04-30T10:12:34.809Z,61.72
2023-04-30T10:15:15.091Z,64.60
2023-04-30T10:17:45.417Z,64.15
2023-04-30T10:20:12.973Z,62.28
2023-04-30T10:22:41.849Z,60.50
2023-04-30T10:25:11.455Z,61.90
2023-04-30T10:27:38.460Z,63.02
2023-04-30T10:30:06.736Z,62.88
2023-04-30T10:32:50.167Z,59.47
2023-04-30T10:35:21.388Z,60.19
2023-04-30T10:37:54.076Z,60.81
2023-04-30T10:40:20.569Z,61.05
2023-04-30T10:42:52.571Z,58.51
2023-04-30T10:45:20.802Z,58.59
2023-04-30T10:47:48.106Z,58.23
2023-04-30T10:50:14.801Z,59.54
2023-04-30T10:52:41.361Z,58.75
2023-04-30T10:55:09.252Z,55.84
2023-04-30T10:57:45.496Z,58.17
2023-04-30T11:00:20.778Z,57.80
2023-04-30T11:02:53.010Z,57.73
2023-04-30T11:05:19.827Z,59.01
2023-04-30T11:07:51.327Z,56.40
2023-04-30T11:10:25.073Z,58.29
2023-04-30T11:12:53.446Z,58.89
2023-04-30T11:15:41.773Z,57.27
2023-04-30T11:18:09.655Z,55.79
2023-04-30T11:20:53.651Z,56.96
2023-04-30T11:23:35.679Z,56.16
2023-04-30T11:26:07.628Z,57.09
2023-04-30T11:28:35.871Z,55.97
2023-04-30T11:31:02.686Z,58.18
2023-04-30T11:33:33.317Z,56.92
2023-04-30T11:36:01.173Z,56.02
2023-04-30T11:38:34.715Z,55.40
2023-04-30T11:41:04.075Z,54.92
2023-04-30T11:43:32.578Z,56.76
2023-04-30T11:46:11.803Z,56.42
2023-04-30T11:48:40.324Z,56.99
2023-04-30T11:51:27.353Z,55.13
2023-04-30T11:53:53.936Z,55.64
2023-04-30T11:56:25.678Z,54.26
2023-04-30T11:58:55.674Z,54.47
2023-04-30T12:01:22.518Z,53.24
2023-04-30T12:03:53.311Z,54.44
2023-04-30T12:06:30.450Z,54.03
2023-04-30T12:09:01.715Z,52.84
2023-04-30T12:11:30.058Z,52.90
2023-04-30T12:14:12.156Z,54.04
2023-04-30T12:16:49.515Z,53.31
2023-04-30T12:19:22.827Z,54.38
2023-04-30T12:21:50.089Z,52.23
2023-04-30T12:24:18.608Z,51.44
2023-04-30T12:26:46.109Z,54.17
2023-04-30T12:29:18.341Z,52.88
2023-04-30T12:31:45.784Z,54.85
2023-04-30T12:34:21.205Z,55.27
2023-04-30T12:36:47.856Z,54.62
2023-04-30T12:39:16.385Z,53.61
2023-04-30T12:41:49.762Z,54.78
2023-04-30T12:44:27.650Z,54.34
2023-04-30T12:47:00.972Z,53.46
2023-04-30T12:49:34.214Z,53.80
2023-04-30T12:52:04.379Z,53.75
2023-04-30T12:54:32.750Z,54.65
2023-04-30T12:57:01.437Z,53.50
2023-04-30T12:59:30.438Z,54.24
2023-04-30T13:02:08.211Z,53.23
2023-04-30T13:04:39.350Z,54.55
2023-04-30T13:07:06.111Z,54.04
2023-04-30T13:09:37.238Z,54.43
2023-04-30T13:12:04.687Z,54.42
2023-04-30T13:14:32.160Z,52.90
2023-04-30T13:16:59.316Z,55.21
2023-04-30T13:19:28.578Z,55.01
2023-04-30T13:21:55.057Z,55.84
2023-04-30T13:24:22.015Z,55.67
2023-04-30T13:26:49.099Z,55.46
2023-04-30T13:29:15.625Z,54.53
2023-04-30T13:31:46.069Z,55.17
2023-04-30T13:34:12.823Z,53.86
2023-04-30T13:36:41.297Z,55.66
2023-04-30T13:39:07.847Z,55.97
2023-04-30T13:41:34.555Z,53.39
2023-04-30T13:44:01.100Z,53.63
2023-04-30T13:46:27.680Z,55.22
2023-04-30T13:49:00.820Z,56.00
2023-04-30T13:51:27.869Z,52.92
2023-04-30T13:54:09.499Z,54.50
2023-04-30T13:56:38.393Z,52.87
2023-04-30T13:59:05.312Z,52.01
2023-04-30T14:01:33.175Z,54.26
2023-04-30T14:04:00.026Z,52.75
2023-04-30T14:06:26.543Z,53.19
2023-04-30T14:08:53.175Z,53.93
2023-04-30T14:11:19.994Z,53.85
2023-04-30T14:13:46.447Z,53.09
2023-04-30T14:16:14.744Z,52.71
2023-04-30T14:18:41.246Z,53.03
2023-04-30T14:21:08.031Z,52.49
2023-04-30T14:23:36.218Z,53.76
2023-04-30T14:26:02.777Z,54.23
2023-04-30T14:28:29.225Z,51.84
2023-04-30T14:30:57.572Z,53.32
2023-04-30T14:33:27.685Z,53.70
2023-04-30T14:35:54.872Z,52.59
2023-04-30T14:38:21.762Z,52.04
2023-04-30T14:40:48.255Z,52.64
2023-04-30T14:43:14.796Z,52.76
2023-04-30T14:45:46.477Z,52.58
2023-04-30T14:48:13.083Z,53.76
2023-04-30T14:50:39.572Z,53.26
2023-04-30T14:53:06.372Z,52.89
2023-04-30T14:55:33.097Z,53.41
2023-04-30T14:58:01.856Z,53.37
2023-04-30T15:00:31.237Z,53.21
2023-04-30T15:02:57.773Z,53.87
2023-04-30T15:05:24.497Z,54.24
2023-04-30T15:07:55.525Z,53.82
2023-04-30T15:10:22.026Z,52.60
2023-04-30T15:12:48.559Z,52.58
2023-04-30T15:15:18.800Z,53.19
2023-04-30T15:17:45.695Z,54.63
2023-04-30T15:20:17.199Z,54.80
2023-04-30T15:22:44.744Z,55.29
2023-04-30T15:25:11.251Z,54.22
2023-04-30T15:27:39.024Z,54.52
2023-04-30T15:30:12.545Z,53.05
2023-04-30T15:32:39.188Z,53.61
2023-04-30T15:35:06.857Z,54.18
2023-04-30T15:37:36.392Z,54.07
2023-04-30T15:40:04.928Z,54.69
2023-04-30T15:42:35.718Z,54.67
2023-04-30T15:45:04.408Z,54.60
2023-04-30T15:47:31.131Z,54.05
2023-04-30T15:49:57.768Z,54.16
2023-04-30T15:52:26.320Z,55.35
2023-04-30T15:54:57.355Z,55.13
2023-04-30T15:57:23.936Z,56.06
2023-04-30T15:59:50.917Z,56.04
2023-04-30T16:02:17.363Z,56.34
2023-04-30T16:04:44.584Z,56.09
2023-04-30T16:07:18.862Z,56.68
2023-04-30T16:09:46.861Z,54.61
2023-04-30T16:12:13.324Z,55.44
2023-04-30T16:14:45.506Z,55.70
2023-04-30T16:17:12.109Z,55.97
2023-04-30T16:19:38.713Z,55.07
2023-04-30T16:22:06.202Z,56.00
2023-04-30T16:24:32.856Z,56.05
2023-04-30T16:27:01.949Z,55.49
2023-04-30T16:29:30.166Z,55.21
2023-04-30T16:31:57.746Z,55.35
2023-04-30T16:34:24.339Z,55.68
2023-04-30T16:36:52.719Z,55.89
2023-04-30T16:39:24.263Z,55.49
2023-04-30T16:41:50.746Z,56.17
2023-04-30T16:44:17.441Z,56.16
2023-04-30T16:46:44.007Z,56.16
2023-04-30T16:49:10.520Z,56.03
2023-04-30T16:51:41.430Z,56.59
2023-04-30T16:54:08.222Z,56.91
2023-04-30T16:56:34.709Z,56.70
2023-04-30T16:59:01.395Z,56.16
2023-04-30T17:01:28.283Z,57.33
2023-04-30T17:03:55.895Z,57.35
2023-04-30T17:06:24.408Z,57.54
2023-04-30T17:08:53.105Z,57.68
2023-04-30T17:11:21.231Z,57.57
2023-04-30T17:13:49.529Z,57.50
2023-04-30T17:16:16.617Z,57.91
2023-04-30T17:18:43.110Z,57.98
2023-04-30T17:21:11.304Z,58.34
2023-04-30T17:23:37.810Z,58.29
2023-04-30T17:26:04.294Z,56.78
2023-04-30T17:28:39.606Z,58.16
2023-04-30T17:31:07.498Z,58.18
2023-04-30T17:33:34.141Z,58.53
2023-04-30T17:36:01.049Z,58.99
2023-04-30T17:38:28.253Z,59.23
2023-04-30T17:40:56.768Z,59.08
2023-04-30T17:43:24.140Z,59.42
2023-04-30T17:45:54.447Z,59.67
2023-04-30T17:48:21.040Z,59.80
2023-04-30T17:50:49.498Z,60.24
2023-04-30T17:53:16.222Z,60.58
2023-04-30T17:55:42.960Z,60.71
2023-04-30T17:58:11.648Z,60.99
2023-04-30T18:00:38.647Z,61.32
2023-04-30T18:03:06.389Z,61.33
2023-04-30T18:05:40.819Z,61.28
2023-04-30T18:08:07.372Z,61.54
2023-04-30T18:10:33.899Z,61.49
2023-04-30T18:13:02.665Z,61.04
2023-04-30T18:15:29.600Z,61.62
2023-04-30T18:17:59.384Z,61.96
2023-04-30T18:20:32.462Z,62.29
2023-04-30T18:22:58.993Z,62.65
2023-04-30T18:25:26.262Z,63.06
2023-04-30T18:27:55.338Z,63.33
2023-04-30T18:30:22.098Z,63.74
2023-04-30T18:32:48.697Z,63.48
2023-04-30T18:35:17.567Z,63.76
2023-04-30T18:37:44.006Z,63.52
2023-04-30T18:40:10.750Z,64.19
2023-04-30T18:42:44.448Z,63.88
2023-04-30T18:45:11.806Z,64.09
2023-04-30T18:47:38.388Z,64.69
2023-04-30T18:50:08.814Z,64.57
2023-04-30T18:52:35.449Z,65.38
2023-04-30T18:55:02.221Z,66.15
2023-04-30T18:57:28.784Z,66.74
2023-04-30T18:59:57.455Z,67.96
2023-04-30T19:02:24.420Z,68.67
2023-04-30T19:04:52.280Z,69.41
2023-04-30T19:07:25.298Z,70.07
2023-04-30T19:09:53.575Z,70.78
2023-04-30T19:12:20.306Z,71.17
2023-04-30T19:14:47.402Z,71.76
2023-04-30T19:17:14.342Z,71.66
2023-04-30T19:19:43.142Z,71.55
2023-04-30T19:22:11.490Z,72.08
2023-04-30T19:24:38.150Z,72.13
2023-04-30T19:27:04.714Z,72.09
2023-04-30T19:29:31.622Z,71.78
2023-04-30T19:32:04.231Z,71.58
2023-04-30T19:34:31.233Z,71.60
2023-04-30T19:36:59.513Z,71.34
2023-04-30T19:39:33.904Z,71.60
2023-04-30T19:42:00.557Z,71.98
2023-04-30T19:44:29.461Z,71.99
2023-04-30T19:46:59.137Z,72.16
2023-04-30T19:49:27.739Z,72.32
2023-04-30T19:51:54.855Z,72.50
2023-04-30T19:54:21.500Z,73.03
2023-04-30T19:56:48.070Z,73.43
2023-04-30T19:59:14.722Z,73.78
2023-04-30T20:01:42.484Z,74.24
2023-04-30T20:04:10.913Z,74.71
2023-04-30T20:06:39.840Z,75.11
2023-04-30T20:09:06.616Z,75.94
2023-04-30T20:11:42.175Z,75.81
2023-04-30T20:14:08.676Z,76.59
2023-04-30T20:16:35.229Z,76.59
2023-04-30T20:19:02.079Z,76.72
2023-04-30T20:21:29.130Z,76.81
2023-04-30T20:23:56.057Z,76.59
2023-04-30T20:26:26.436Z,76.83
2023-04-30T20:28:53.615Z,76.54
2023-04-30T20:31:21.235Z,76.37
2023-04-30T20:33:49.959Z,76.66
2023-04-30T20:36:17.529Z,76.71
2023-04-30T20:38:44.098Z,76.67
2023-04-30T20:41:10.842Z,76.72
2023-04-30T20:43:37.409Z,76.97
2023-04-30T20:46:04.115Z,76.80
2023-04-30T20:48:31.303Z,76.89
2023-04-30T20:50:57.974Z,77.07
2023-04-30T20:53:24.572Z,76.90
2023-04-30T20:55:51.699Z,77.33
2023-04-30T20:58:18.275Z,77.35
2023-04-30T21:00:49.445Z,77.66
2023-04-30T21:03:18.805Z,78.20
2023-04-30T21:05:45.772Z,78.79
2023-04-30T21:08:12.305Z,78.75
2023-04-30T21:10:40.581Z,78.88
2023-04-30T21:13:08.934Z,78.66
2023-04-30T21:15:36.331Z,79.13
2023-04-30T21:18:11.765Z,79.55
2023-04-30T21:20:38.304Z,80.10
2023-04-30T21:23:04.825Z,79.99
2023-04-30T21:25:31.424Z,80.14
2023-04-30T21:27:58.172Z,80.53
2023-04-30T21:30:26.518Z,80.83
2023-04-30T21:32:58.970Z,80.48
2023-04-30T21:35:27.435Z,79.92
2023-04-30T21:37:54.092Z,79.25
2023-04-30T21:40:29.131Z,79.25
2023-04-30T21:42:55.909Z,79.32
2023-04-30T21:45:22.375Z,79.50
2023-04-30T21:47:50.710Z,79.71
2023-04-30T21:50:17.266Z,80.05
2023-04-30T21:52:44.088Z,79.95
2023-04-30T21:55:10.892Z,80.38
2023-04-30T21:57:37.356Z,80.59
2023-04-30T22:00:06.432Z,80.41
2023-04-30T22:02:33.189Z,79.85
2023-04-30T22:04:59.784Z,79.71
2023-04-30T22:07:27.496Z,80.09
2023-04-30T22:09:55.932Z,80.17
2023-04-30T22:12:25.104Z,81.41
2023-04-30T22:14:55.047Z,81.57
2023-04-30T22:17:29.137Z,81.47
2023-04-30T22:19:57.291Z,82.04
2023-04-30T22:22:27.060Z,82.47
2023-04-30T22:24:53.668Z,81.98
2023-04-30T22:27:20.112Z,82.12
2023-04-30T22:29:50.388Z,82.46
2023-04-30T22:32:19.480Z,82.65
2023-04-30T22:34:46.130Z,83.42
2023-04-30T22:37:12.585Z,83.59
2023-04-30T22:39:41.144Z,82.94
2023-04-30T22:42:09.319Z,82.02
2023-04-30T22:44:36.291Z,82.18
2023-04-30T22:47:07.805Z,81.96
2023-04-30T22:49:34.975Z,82.66
2023-04-30T22:52:02.264Z,82.53
2023-04-30T22:54:30.840Z,83.10
2023-04-30T22:56:58.254Z,82.94
2023-04-30T22:59:24.766Z,83.44
2023-04-30T23:01:51.762Z,83.53
2023-04-30T23:04:20.095Z,83.48
2023-04-30T23:06:46.664Z,83.06
2023-04-30T23:09:17.351Z,82.62
2023-04-30T23:11:44.780Z,82.58
2023-04-30T23:14:11.225Z,81.88
2023-04-30T23:16:42.406Z,83.15
2023-04-30T23:19:09.598Z,82.43
2023-04-30T23:21:36.404Z,82.86
2023-04-30T23:24:07.156Z,82.26
2023-04-30T23:26:33.683Z,82.33
2023-04-30T23:29:00.264Z,82.44
2023-04-30T23:31:29.478Z,83.45
2023-04-30T23:34:00.502Z,83.64
2023-04-30T23:36:27.017Z,83.78
2023-04-30T23:38:53.775Z,84.25
2023-04-30T23:41:20.906Z,83.84
2023-04-30T23:43:47.642Z,82.95
2023-04-30T23:46:17.764Z,83.27
2023-04-30T23:48:44.326Z,83.06
2023-04-30T23:51:10.837Z,83.16
2023-04-30T23:53:47.941Z,83.67
2023-04-30T23:56:15.555Z,83.66
2023-04-30T23:58:42.008Z,84.54
